sensor_id;sensor_type;location;lat;lon;timestamp;P1;durP1;ratioP1;P2;durP2;ratioP2
81221;SDS011;70691;52.492;13.420;2023-07-31T00:02:14;3.83;;;1.27;;
81221;SDS011;70691;52.492;13.420;2023-07-31T00:04:40;5.20;;;1.80;;
81221;SDS011;70691;52.492;13.420;2023-07-31T00:07:05;4.85;;;1.35;;
81221;SDS011;70691;52.492;13.420;2023-07-31T00:09:32;3.15;;;1.30;;
81221;SDS011;70691;52.492;13.420;2023-07-31T00:11:58;3.30;;;1.58;;
81221;SDS011;70691;52.492;13.420;2023-07-31T00:14:24;3.85;;;1.50;;
81221;SDS011;70691;52.492;13.420;2023-07-31T00:16:50;3.88;;;1.40;;
81221;SDS011;70691;52.492;13.420;2023-07-31T00:19:15;3.53;;;1.35;;
81221;SDS011;70691;52.492;13.420;2023-07-31T00:21:41;7.78;;;1.70;;
81221;SDS011;70691;52.492;13.420;2023-07-31T00:24:07;7.30;;;1.70;;
81221;SDS011;70691;52.492;13.420;2023-07-31T00:26:32;5.20;;;1.85;;
81221;SDS011;70691;52.492;13.420;2023-07-31T00:28:58;3.58;;;1.23;;
81221;SDS011;70691;52.492;13.420;2023-07-31T00:31:24;2.13;;;1.30;;
81221;SDS011;70691;52.492;13.420;2023-07-31T00:33:49;6.03;;;1.35;;
81221;SDS011;70691;52.492;13.420;2023-07-31T00:36:15;5.28;;;1.55;;
81221;SDS011;70691;52.492;13.420;2023-07-31T00:38:42;4.65;;;1.75;;
81221;SDS011;70691;52.492;13.420;2023-07-31T00:41:08;3.22;;;1.42;;
81221;SDS011;70691;52.492;13.420;2023-07-31T00:43:34;4.55;;;1.55;;
81221;SDS011;70691;52.492;13.420;2023-07-31T00:45:59;4.45;;;1.27;;
81221;SDS011;70691;52.492;13.420;2023-07-31T00:48:25;10.23;;;1.67;;
81221;SDS011;70691;52.492;13.420;2023-07-31T00:50:51;8.88;;;1.73;;
81221;SDS011;70691;52.492;13.420;2023-07-31T00:53:17;6.82;;;1.55;;
81221;SDS011;70691;52.492;13.420;2023-07-31T00:55:43;4.78;;;1.52;;
81221;SDS011;70691;52.492;13.420;2023-07-31T00:58:09;4.65;;;1.40;;
81221;SDS011;70691;52.492;13.420;2023-07-31T01:00:35;5.18;;;1.20;;
81221;SDS011;70691;52.492;13.420;2023-07-31T01:03:00;6.25;;;1.60;;
81221;SDS011;70691;52.492;13.420;2023-07-31T01:06:14;3.08;;;1.67;;
81221;SDS011;70691;52.492;13.420;2023-07-31T01:08:15;3.45;;;1.65;;
81221;SDS011;70691;52.492;13.420;2023-07-31T01:10:50;9.07;;;1.98;;
81221;SDS011;70691;52.492;13.420;2023-07-31T01:13:21;4.85;;;2.10;;
81221;SDS011;70691;52.492;13.420;2023-07-31T01:15:47;5.63;;;2.00;;
81221;SDS011;70691;52.492;13.420;2023-07-31T01:18:13;4.18;;;1.38;;
81221;SDS011;70691;52.492;13.420;2023-07-31T01:20:38;3.42;;;1.88;;
81221;SDS011;70691;52.492;13.420;2023-07-31T01:23:10;3.53;;;1.75;;
81221;SDS011;70691;52.492;13.420;2023-07-31T01:31:06;6.22;;;1.90;;
81221;SDS011;70691;52.492;13.420;2023-07-31T01:33:34;4.32;;;1.50;;
81221;SDS011;70691;52.492;13.420;2023-07-31T01:36:01;6.03;;;1.85;;
81221;SDS011;70691;52.492;13.420;2023-07-31T01:38:27;6.43;;;2.30;;
81221;SDS011;70691;52.492;13.420;2023-07-31T01:40:53;3.35;;;1.45;;
81221;SDS011;70691;52.492;13.420;2023-07-31T01:43:19;4.60;;;1.80;;
81221;SDS011;70691;52.492;13.420;2023-07-31T01:45:44;6.00;;;2.05;;
81221;SDS011;70691;52.492;13.420;2023-07-31T01:48:10;5.60;;;2.00;;
81221;SDS011;70691;52.492;13.420;2023-07-31T01:50:36;5.43;;;1.92;;
81221;SDS011;70691;52.492;13.420;2023-07-31T01:53:01;4.35;;;1.42;;
81221;SDS011;70691;52.492;13.420;2023-07-31T01:55:27;4.85;;;1.60;;
81221;SDS011;70691;52.492;13.420;2023-07-31T01:57:53;3.65;;;1.50;;
81221;SDS011;70691;52.492;13.420;2023-07-31T02:00:18;6.03;;;1.77;;
81221;SDS011;70691;52.492;13.420;2023-07-31T02:02:44;5.45;;;1.42;;
81221;SDS011;70691;52.492;13.420;2023-07-31T02:05:10;5.55;;;2.22;;
81221;SDS011;70691;52.492;13.420;2023-07-31T02:07:35;2.15;;;1.50;;
81221;SDS011;70691;52.492;13.420;2023-07-31T02:10:01;2.80;;;1.55;;
81221;SDS011;70691;52.492;13.420;2023-07-31T02:12:27;4.97;;;1.50;;
81221;SDS011;70691;52.492;13.420;2023-07-31T02:14:58;6.55;;;2.00;;
81221;SDS011;70691;52.492;13.420;2023-07-31T02:17:23;6.22;;;1.88;;
81221;SDS011;70691;52.492;13.420;2023-07-31T02:19:49;2.70;;;1.55;;
81221;SDS011;70691;52.492;13.420;2023-07-31T02:22:14;2.20;;;1.48;;
81221;SDS011;70691;52.492;13.420;2023-07-31T02:24:40;4.53;;;1.80;;
81221;SDS011;70691;52.492;13.420;2023-07-31T02:27:06;5.00;;;1.63;;
81221;SDS011;70691;52.492;13.420;2023-07-31T02:29:31;6.70;;;1.85;;
81221;SDS011;70691;52.492;13.420;2023-07-31T02:31:57;3.35;;;1.75;;
81221;SDS011;70691;52.492;13.420;2023-07-31T02:34:22;6.13;;;2.65;;
81221;SDS011;70691;52.492;13.420;2023-07-31T02:36:48;3.90;;;1.90;;
81221;SDS011;70691;52.492;13.420;2023-07-31T02:39:14;5.90;;;2.28;;
81221;SDS011;70691;52.492;13.420;2023-07-31T02:41:39;4.97;;;2.53;;
81221;SDS011;70691;52.492;13.420;2023-07-31T02:44:05;5.90;;;2.10;;
81221;SDS011;70691;52.492;13.420;2023-07-31T02:46:30;6.93;;;2.10;;
81221;SDS011;70691;52.492;13.420;2023-07-31T02:48:56;6.47;;;2.35;;
81221;SDS011;70691;52.492;13.420;2023-07-31T02:51:22;5.60;;;2.80;;
81221;SDS011;70691;52.492;13.420;2023-07-31T02:53:47;4.82;;;2.17;;
81221;SDS011;70691;52.492;13.420;2023-07-31T02:56:13;5.25;;;2.35;;
81221;SDS011;70691;52.492;13.420;2023-07-31T02:58:39;5.35;;;2.20;;
81221;SDS011;70691;52.492;13.420;2023-07-31T03:01:04;4.85;;;2.53;;
81221;SDS011;70691;52.492;13.420;2023-07-31T03:03:30;5.88;;;2.35;;
81221;SDS011;70691;52.492;13.420;2023-07-31T03:05:56;7.70;;;3.30;;
81221;SDS011;70691;52.492;13.420;2023-07-31T03:08:21;4.38;;;2.63;;
81221;SDS011;70691;52.492;13.420;2023-07-31T03:10:47;9.75;;;2.65;;
81221;SDS011;70691;52.492;13.420;2023-07-31T03:13:13;11.00;;;3.13;;
81221;SDS011;70691;52.492;13.420;2023-07-31T03:15:41;7.97;;;2.70;;
81221;SDS011;70691;52.492;13.420;2023-07-31T03:18:07;6.03;;;3.15;;
81221;SDS011;70691;52.492;13.420;2023-07-31T03:20:33;4.97;;;2.80;;
81221;SDS011;70691;52.492;13.420;2023-07-31T03:22:58;6.63;;;3.03;;
81221;SDS011;70691;52.492;13.420;2023-07-31T03:25:24;7.35;;;3.22;;
81221;SDS011;70691;52.492;13.420;2023-07-31T03:27:50;6.38;;;3.10;;
81221;SDS011;70691;52.492;13.420;2023-07-31T03:30:15;3.97;;;2.70;;
81221;SDS011;70691;52.492;13.420;2023-07-31T03:32:41;4.10;;;2.90;;
81221;SDS011;70691;52.492;13.420;2023-07-31T03:35:07;5.75;;;3.50;;
81221;SDS011;70691;52.492;13.420;2023-07-31T03:37:32;11.05;;;3.97;;
81221;SDS011;70691;52.492;13.420;2023-07-31T03:39:58;9.10;;;3.08;;
81221;SDS011;70691;52.492;13.420;2023-07-31T03:42:24;8.23;;;3.78;;
81221;SDS011;70691;52.492;13.420;2023-07-31T03:44:49;5.22;;;3.45;;
81221;SDS011;70691;52.492;13.420;2023-07-31T03:47:15;4.50;;;2.60;;
81221;SDS011;70691;52.492;13.420;2023-07-31T03:49:41;8.55;;;3.45;;
81221;SDS011;70691;52.492;13.420;2023-07-31T03:52:06;6.85;;;3.38;;
81221;SDS011;70691;52.492;13.420;2023-07-31T03:54:32;6.65;;;3.58;;
81221;SDS011;70691;52.492;13.420;2023-07-31T03:56:58;8.60;;;3.67;;
81221;SDS011;70691;52.492;13.420;2023-07-31T03:59:24;7.53;;;3.70;;
81221;SDS011;70691;52.492;13.420;2023-07-31T04:01:49;4.60;;;3.30;;
81221;SDS011;70691;52.492;13.420;2023-07-31T04:04:15;6.53;;;3.30;;
81221;SDS011;70691;52.492;13.420;2023-07-31T04:06:40;8.73;;;3.90;;
81221;SDS011;70691;52.492;13.420;2023-07-31T04:09:06;9.52;;;3.67;;
81221;SDS011;70691;52.492;13.420;2023-07-31T04:11:32;10.50;;;2.80;;
81221;SDS011;70691;52.492;13.420;2023-07-31T04:13:57;9.80;;;3.58;;
81221;SDS011;70691;52.492;13.420;2023-07-31T04:16:23;10.00;;;3.58;;
81221;SDS011;70691;52.492;13.420;2023-07-31T04:18:48;5.07;;;3.15;;
81221;SDS011;70691;52.492;13.420;2023-07-31T04:21:14;6.45;;;3.72;;
81221;SDS011;70691;52.492;13.420;2023-07-31T04:23:40;8.13;;;4.13;;
81221;SDS011;70691;52.492;13.420;2023-07-31T04:26:05;7.45;;;3.63;;
81221;SDS011;70691;52.492;13.420;2023-07-31T04:28:31;8.45;;;4.25;;
81221;SDS011;70691;52.492;13.420;2023-07-31T04:30:57;7.50;;;4.30;;
81221;SDS011;70691;52.492;13.420;2023-07-31T04:33:22;8.55;;;3.72;;
81221;SDS011;70691;52.492;13.420;2023-07-31T04:35:52;9.50;;;4.20;;
81221;SDS011;70691;52.492;13.420;2023-07-31T04:38:19;7.30;;;3.78;;
81221;SDS011;70691;52.492;13.420;2023-07-31T04:40:46;11.30;;;3.45;;
81221;SDS011;70691;52.492;13.420;2023-07-31T04:43:12;8.77;;;3.35;;
81221;SDS011;70691;52.492;13.420;2023-07-31T04:45:37;6.07;;;3.08;;
81221;SDS011;70691;52.492;13.420;2023-07-31T04:48:03;7.28;;;3.47;;
81221;SDS011;70691;52.492;13.420;2023-07-31T04:50:29;13.98;;;3.30;;
81221;SDS011;70691;52.492;13.420;2023-07-31T04:52:55;7.88;;;4.25;;
81221;SDS011;70691;52.492;13.420;2023-07-31T04:55:21;6.03;;;3.70;;
81221;SDS011;70691;52.492;13.420;2023-07-31T04:57:47;7.68;;;3.28;;
81221;SDS011;70691;52.492;13.420;2023-07-31T05:00:12;6.75;;;3.15;;
81221;SDS011;70691;52.492;13.420;2023-07-31T05:02:38;4.65;;;2.80;;
81221;SDS011;70691;52.492;13.420;2023-07-31T05:05:04;6.50;;;3.55;;
81221;SDS011;70691;52.492;13.420;2023-07-31T05:07:30;6.30;;;3.53;;
81221;SDS011;70691;52.492;13.420;2023-07-31T05:09:55;8.00;;;3.28;;
81221;SDS011;70691;52.492;13.420;2023-07-31T05:12:21;6.13;;;3.60;;
81221;SDS011;70691;52.492;13.420;2023-07-31T05:14:47;9.45;;;3.72;;
81221;SDS011;70691;52.492;13.420;2023-07-31T05:17:12;8.57;;;3.30;;
81221;SDS011;70691;52.492;13.420;2023-07-31T05:19:38;6.93;;;3.20;;
81221;SDS011;70691;52.492;13.420;2023-07-31T05:22:03;9.23;;;3.05;;
81221;SDS011;70691;52.492;13.420;2023-07-31T05:24:29;7.50;;;3.25;;
81221;SDS011;70691;52.492;13.420;2023-07-31T05:26:55;6.30;;;3.08;;
81221;SDS011;70691;52.492;13.420;2023-07-31T05:29:20;5.47;;;2.53;;
81221;SDS011;70691;52.492;13.420;2023-07-31T05:31:46;6.55;;;3.00;;
81221;SDS011;70691;52.492;13.420;2023-07-31T05:34:12;6.93;;;2.65;;
81221;SDS011;70691;52.492;13.420;2023-07-31T05:36:37;4.30;;;2.55;;
81221;SDS011;70691;52.492;13.420;2023-07-31T05:39:03;5.78;;;2.33;;
81221;SDS011;70691;52.492;13.420;2023-07-31T05:41:32;6.28;;;2.25;;
81221;SDS011;70691;52.492;13.420;2023-07-31T05:43:58;3.55;;;2.22;;
81221;SDS011;70691;52.492;13.420;2023-07-31T05:46:23;7.82;;;2.80;;
81221;SDS011;70691;52.492;13.420;2023-07-31T05:48:49;7.90;;;3.20;;
81221;SDS011;70691;52.492;13.420;2023-07-31T05:51:14;5.63;;;2.20;;
81221;SDS011;70691;52.492;13.420;2023-07-31T05:53:40;6.45;;;2.85;;
81221;SDS011;70691;52.492;13.420;2023-07-31T05:56:06;8.63;;;2.60;;
81221;SDS011;70691;52.492;13.420;2023-07-31T05:58:32;4.25;;;2.50;;
81221;SDS011;70691;52.492;13.420;2023-07-31T06:00:57;6.32;;;2.75;;
81221;SDS011;70691;52.492;13.420;2023-07-31T06:03:23;9.57;;;2.50;;
81221;SDS011;70691;52.492;13.420;2023-07-31T06:05:49;6.65;;;2.00;;
81221;SDS011;70691;52.492;13.420;2023-07-31T06:08:15;4.85;;;2.30;;
81221;SDS011;70691;52.492;13.420;2023-07-31T06:10:40;4.68;;;2.22;;
81221;SDS011;70691;52.492;13.420;2023-07-31T06:13:06;5.68;;;2.53;;
81221;SDS011;70691;52.492;13.420;2023-07-31T06:15:31;5.15;;;2.47;;
81221;SDS011;70691;52.492;13.420;2023-07-31T06:17:57;6.40;;;2.63;;
81221;SDS011;70691;52.492;13.420;2023-07-31T06:20:24;4.88;;;2.90;;
81221;SDS011;70691;52.492;13.420;2023-07-31T06:22:49;4.90;;;2.28;;
81221;SDS011;70691;52.492;13.420;2023-07-31T06:25:15;7.93;;;2.22;;
81221;SDS011;70691;52.492;13.420;2023-07-31T06:27:40;6.57;;;2.45;;
81221;SDS011;70691;52.492;13.420;2023-07-31T06:30:06;6.93;;;2.53;;
81221;SDS011;70691;52.492;13.420;2023-07-31T06:32:32;7.72;;;2.90;;
81221;SDS011;70691;52.492;13.420;2023-07-31T06:34:58;6.90;;;2.63;;
81221;SDS011;70691;52.492;13.420;2023-07-31T06:37:24;11.90;;;3.83;;
81221;SDS011;70691;52.492;13.420;2023-07-31T06:39:49;7.53;;;3.25;;
81221;SDS011;70691;52.492;13.420;2023-07-31T06:42:15;7.32;;;2.35;;
81221;SDS011;70691;52.492;13.420;2023-07-31T06:44:41;8.55;;;3.63;;
81221;SDS011;70691;52.492;13.420;2023-07-31T06:47:07;5.70;;;1.65;;
81221;SDS011;70691;52.492;13.420;2023-07-31T06:49:33;8.80;;;3.03;;
81221;SDS011;70691;52.492;13.420;2023-07-31T06:51:59;4.32;;;2.00;;
81221;SDS011;70691;52.492;13.420;2023-07-31T06:54:25;5.90;;;2.45;;
81221;SDS011;70691;52.492;13.420;2023-07-31T06:56:50;5.10;;;2.47;;
81221;SDS011;70691;52.492;13.420;2023-07-31T06:59:16;8.25;;;2.40;;
81221;SDS011;70691;52.492;13.420;2023-07-31T07:01:41;9.90;;;2.72;;
81221;SDS011;70691;52.492;13.420;2023-07-31T07:04:07;8.48;;;3.10;;
81221;SDS011;70691;52.492;13.420;2023-07-31T07:06:33;7.05;;;2.70;;
81221;SDS011;70691;52.492;13.420;2023-07-31T07:08:58;6.53;;;2.22;;
81221;SDS011;70691;52.492;13.420;2023-07-31T07:11:24;9.65;;;2.28;;
81221;SDS011;70691;52.492;13.420;2023-07-31T07:13:50;6.97;;;2.33;;
81221;SDS011;70691;52.492;13.420;2023-07-31T07:16:16;5.65;;;2.20;;
81221;SDS011;70691;52.492;13.420;2023-07-31T07:18:42;6.57;;;2.42;;
81221;SDS011;70691;52.492;13.420;2023-07-31T07:21:07;4.05;;;1.50;;
81221;SDS011;70691;52.492;13.420;2023-07-31T07:23:33;4.22;;;1.85;;
81221;SDS011;70691;52.492;13.420;2023-07-31T07:25:59;6.07;;;1.80;;
81221;SDS011;70691;52.492;13.420;2023-07-31T07:28:25;6.10;;;2.33;;
81221;SDS011;70691;52.492;13.420;2023-07-31T07:30:51;7.57;;;2.40;;
81221;SDS011;70691;52.492;13.420;2023-07-31T07:33:18;5.82;;;2.33;;
81221;SDS011;70691;52.492;13.420;2023-07-31T07:35:44;7.10;;;2.03;;
81221;SDS011;70691;52.492;13.420;2023-07-31T07:38:09;3.25;;;2.00;;
81221;SDS011;70691;52.492;13.420;2023-07-31T07:40:38;10.55;;;4.00;;
81221;SDS011;70691;52.492;13.420;2023-07-31T07:43:04;7.03;;;2.22;;
81221;SDS011;70691;52.492;13.420;2023-07-31T07:45:30;5.13;;;2.38;;
81221;SDS011;70691;52.492;13.420;2023-07-31T07:47:56;5.85;;;1.85;;
81221;SDS011;70691;52.492;13.420;2023-07-31T07:50:21;4.47;;;1.83;;
81221;SDS011;70691;52.492;13.420;2023-07-31T07:52:47;3.65;;;1.98;;
81221;SDS011;70691;52.492;13.420;2023-07-31T07:55:12;7.15;;;2.63;;
81221;SDS011;70691;52.492;13.420;2023-07-31T07:57:38;5.53;;;2.75;;
81221;SDS011;70691;52.492;13.420;2023-07-31T08:00:04;4.50;;;2.13;;
81221;SDS011;70691;52.492;13.420;2023-07-31T08:02:30;5.00;;;1.67;;
81221;SDS011;70691;52.492;13.420;2023-07-31T08:04:56;3.13;;;2.17;;
81221;SDS011;70691;52.492;13.420;2023-07-31T08:07:22;2.85;;;1.60;;
81221;SDS011;70691;52.492;13.420;2023-07-31T08:09:47;4.07;;;2.00;;
81221;SDS011;70691;52.492;13.420;2023-07-31T08:12:13;3.70;;;2.08;;
81221;SDS011;70691;52.492;13.420;2023-07-31T08:14:39;3.78;;;1.67;;
81221;SDS011;70691;52.492;13.420;2023-07-31T08:17:05;5.45;;;2.03;;
81221;SDS011;70691;52.492;13.420;2023-07-31T08:19:31;4.72;;;1.92;;
81221;SDS011;70691;52.492;13.420;2023-07-31T08:21:57;2.40;;;1.42;;
81221;SDS011;70691;52.492;13.420;2023-07-31T08:24:22;5.47;;;1.98;;
81221;SDS011;70691;52.492;13.420;2023-07-31T08:26:48;10.13;;;1.95;;
81221;SDS011;70691;52.492;13.420;2023-07-31T08:29:14;4.25;;;1.92;;
81221;SDS011;70691;52.492;13.420;2023-07-31T08:31:39;3.55;;;1.80;;
81221;SDS011;70691;52.492;13.420;2023-07-31T08:34:05;3.20;;;1.55;;
81221;SDS011;70691;52.492;13.420;2023-07-31T08:36:31;4.72;;;1.80;;
81221;SDS011;70691;52.492;13.420;2023-07-31T08:38:56;3.63;;;1.67;;
81221;SDS011;70691;52.492;13.420;2023-07-31T08:41:22;5.47;;;2.53;;
81221;SDS011;70691;52.492;13.420;2023-07-31T08:43:49;3.88;;;2.17;;
81221;SDS011;70691;52.492;13.420;2023-07-31T08:46:15;8.30;;;2.00;;
81221;SDS011;70691;52.492;13.420;2023-07-31T08:48:42;3.92;;;2.30;;
81221;SDS011;70691;52.492;13.420;2023-07-31T08:51:08;6.32;;;2.00;;
81221;SDS011;70691;52.492;13.420;2023-07-31T08:53:34;3.55;;;2.00;;
81221;SDS011;70691;52.492;13.420;2023-07-31T08:56:00;2.53;;;1.75;;
81221;SDS011;70691;52.492;13.420;2023-07-31T08:58:27;6.68;;;2.97;;
81221;SDS011;70691;52.492;13.420;2023-07-31T09:01:01;5.18;;;1.77;;
81221;SDS011;70691;52.492;13.420;2023-07-31T09:03:29;2.60;;;1.52;;
81221;SDS011;70691;52.492;13.420;2023-07-31T09:06:00;4.95;;;1.45;;
81221;SDS011;70691;52.492;13.420;2023-07-31T09:08:29;6.65;;;1.63;;
81221;SDS011;70691;52.492;13.420;2023-07-31T09:10:58;3.35;;;1.65;;
81221;SDS011;70691;52.492;13.420;2023-07-31T09:13:27;2.75;;;1.80;;
81221;SDS011;70691;52.492;13.420;2023-07-31T09:15:54;2.33;;;1.50;;
81221;SDS011;70691;52.492;13.420;2023-07-31T09:18:20;3.95;;;2.33;;
81221;SDS011;70691;52.492;13.420;2023-07-31T09:20:59;2.67;;;1.25;;
81221;SDS011;70691;52.492;13.420;2023-07-31T09:23:42;3.87;;;1.70;;
81221;SDS011;70691;52.492;13.420;2023-07-31T09:26:10;4.70;;;1.92;;
81221;SDS011;70691;52.492;13.420;2023-07-31T09:28:36;1.80;;;1.20;;
81221;SDS011;70691;52.492;13.420;2023-07-31T09:31:01;4.35;;;1.67;;
81221;SDS011;70691;52.492;13.420;2023-07-31T09:33:27;5.65;;;2.00;;
81221;SDS011;70691;52.492;13.420;2023-07-31T09:35:53;3.67;;;1.65;;
81221;SDS011;70691;52.492;13.420;2023-07-31T09:38:18;2.92;;;1.45;;
81221;SDS011;70691;52.492;13.420;2023-07-31T09:40:45;2.78;;;1.50;;
81221;SDS011;70691;52.492;13.420;2023-07-31T09:43:31;2.25;;;1.05;;
81221;SDS011;70691;52.492;13.420;2023-07-31T09:45:57;1.45;;;0.90;;
81221;SDS011;70691;52.492;13.420;2023-07-31T09:48:23;1.60;;;0.63;;
81221;SDS011;70691;52.492;13.420;2023-07-31T09:50:52;1.92;;;0.95;;
81221;SDS011;70691;52.492;13.420;2023-07-31T09:53:19;2.55;;;1.40;;
81221;SDS011;70691;52.492;13.420;2023-07-31T09:55:44;1.67;;;1.10;;
81221;SDS011;70691;52.492;13.420;2023-07-31T09:58:11;1.50;;;1.00;;
81221;SDS011;70691;52.492;13.420;2023-07-31T10:00:38;2.55;;;0.73;;
81221;SDS011;70691;52.492;13.420;2023-07-31T10:03:05;2.40;;;1.30;;
81221;SDS011;70691;52.492;13.420;2023-07-31T10:05:39;2.70;;;1.33;;
81221;SDS011;70691;52.492;13.420;2023-07-31T10:08:09;5.28;;;2.00;;
81221;SDS011;70691;52.492;13.420;2023-07-31T10:10:35;5.10;;;2.47;;
81221;SDS011;70691;52.492;13.420;2023-07-31T10:13:02;5.80;;;2.55;;
81221;SDS011;70691;52.492;13.420;2023-07-31T10:15:29;5.18;;;1.98;;
81221;SDS011;70691;52.492;13.420;2023-07-31T10:17:56;2.78;;;1.70;;
81221;SDS011;70691;52.492;13.420;2023-07-31T10:20:24;3.35;;;2.13;;
81221;SDS011;70691;52.492;13.420;2023-07-31T10:22:52;9.25;;;2.88;;
81221;SDS011;70691;52.492;13.420;2023-07-31T10:25:19;8.40;;;2.10;;
81221;SDS011;70691;52.492;13.420;2023-07-31T10:27:47;5.50;;;2.70;;
81221;SDS011;70691;52.492;13.420;2023-07-31T10:30:17;8.35;;;2.58;;
81221;SDS011;70691;52.492;13.420;2023-07-31T10:32:47;7.55;;;2.85;;
81221;SDS011;70691;52.492;13.420;2023-07-31T10:35:15;5.20;;;2.47;;
81221;SDS011;70691;52.492;13.420;2023-07-31T10:37:42;5.38;;;2.22;;
81221;SDS011;70691;52.492;13.420;2023-07-31T10:40:12;5.72;;;2.35;;
81221;SDS011;70691;52.492;13.420;2023-07-31T10:42:49;3.90;;;2.22;;
81221;SDS011;70691;52.492;13.420;2023-07-31T10:50:52;8.27;;;3.72;;
81221;SDS011;70691;52.492;13.420;2023-07-31T10:55:52;8.02;;;3.25;;
81221;SDS011;70691;52.492;13.420;2023-07-31T10:58:18;6.03;;;3.58;;
81221;SDS011;70691;52.492;13.420;2023-07-31T11:00:46;5.70;;;3.20;;
81221;SDS011;70691;52.492;13.420;2023-07-31T11:03:18;5.20;;;2.25;;
81221;SDS011;70691;52.492;13.420;2023-07-31T11:06:00;4.85;;;2.50;;
81221;SDS011;70691;52.492;13.420;2023-07-31T11:08:32;8.20;;;2.65;;
81221;SDS011;70691;52.492;13.420;2023-07-31T11:13:27;4.50;;;2.75;;
81221;SDS011;70691;52.492;13.420;2023-07-31T11:15:54;5.18;;;2.33;;
81221;SDS011;70691;52.492;13.420;2023-07-31T11:18:19;5.45;;;2.40;;
81221;SDS011;70691;52.492;13.420;2023-07-31T11:20:47;7.97;;;2.40;;
81221;SDS011;70691;52.492;13.420;2023-07-31T11:23:15;6.28;;;2.17;;
81221;SDS011;70691;52.492;13.420;2023-07-31T11:25:42;5.10;;;3.00;;
81221;SDS011;70691;52.492;13.420;2023-07-31T11:28:14;4.50;;;2.58;;
81221;SDS011;70691;52.492;13.420;2023-07-31T11:30:41;8.52;;;3.08;;
81221;SDS011;70691;52.492;13.420;2023-07-31T11:33:08;6.88;;;2.53;;
81221;SDS011;70691;52.492;13.420;2023-07-31T11:35:48;6.07;;;2.10;;
81221;SDS011;70691;52.492;13.420;2023-07-31T11:40:52;5.90;;;2.30;;
81221;SDS011;70691;52.492;13.420;2023-07-31T11:43:26;7.75;;;3.25;;
81221;SDS011;70691;52.492;13.420;2023-07-31T11:45:57;6.65;;;2.80;;
81221;SDS011;70691;52.492;13.420;2023-07-31T11:48:25;4.93;;;2.40;;
81221;SDS011;70691;52.492;13.420;2023-07-31T11:51:04;6.00;;;3.15;;
81221;SDS011;70691;52.492;13.420;2023-07-31T11:53:48;8.20;;;2.70;;
81221;SDS011;70691;52.492;13.420;2023-07-31T11:56:17;4.00;;;1.77;;
81221;SDS011;70691;52.492;13.420;2023-07-31T11:59:02;6.03;;;2.50;;
81221;SDS011;70691;52.492;13.420;2023-07-31T12:01:30;8.20;;;2.65;;
81221;SDS011;70691;52.492;13.420;2023-07-31T12:03:56;10.13;;;2.53;;
81221;SDS011;70691;52.492;13.420;2023-07-31T12:06:31;12.02;;;2.90;;
81221;SDS011;70691;52.492;13.420;2023-07-31T12:09:04;4.47;;;2.30;;
81221;SDS011;70691;52.492;13.420;2023-07-31T12:11:30;8.70;;;3.35;;
81221;SDS011;70691;52.492;13.420;2023-07-31T12:13:56;6.20;;;2.80;;
81221;SDS011;70691;52.492;13.420;2023-07-31T12:16:22;4.95;;;2.30;;
81221;SDS011;70691;52.492;13.420;2023-07-31T12:18:51;5.95;;;2.75;;
81221;SDS011;70691;52.492;13.420;2023-07-31T12:21:17;6.65;;;2.78;;
81221;SDS011;70691;52.492;13.420;2023-07-31T12:23:44;7.45;;;2.80;;
81221;SDS011;70691;52.492;13.420;2023-07-31T12:26:11;8.52;;;2.40;;
81221;SDS011;70691;52.492;13.420;2023-07-31T12:28:40;8.50;;;2.00;;
81221;SDS011;70691;52.492;13.420;2023-07-31T12:31:11;5.97;;;2.42;;
81221;SDS011;70691;52.492;13.420;2023-07-31T12:33:39;8.77;;;2.25;;
81221;SDS011;70691;52.492;13.420;2023-07-31T12:36:15;5.30;;;1.90;;
81221;SDS011;70691;52.492;13.420;2023-07-31T12:38:42;6.25;;;2.08;;
81221;SDS011;70691;52.492;13.420;2023-07-31T12:41:09;5.35;;;2.25;;
81221;SDS011;70691;52.492;13.420;2023-07-31T12:43:36;6.97;;;2.58;;
81221;SDS011;70691;52.492;13.420;2023-07-31T12:46:04;6.43;;;2.60;;
81221;SDS011;70691;52.492;13.420;2023-07-31T12:48:30;4.72;;;2.38;;
81221;SDS011;70691;52.492;13.420;2023-07-31T12:50:57;3.97;;;1.58;;
81221;SDS011;70691;52.492;13.420;2023-07-31T12:53:22;2.92;;;1.55;;
81221;SDS011;70691;52.492;13.420;2023-07-31T12:55:48;6.03;;;1.95;;
81221;SDS011;70691;52.492;13.420;2023-07-31T12:58:14;3.42;;;1.65;;
81221;SDS011;70691;52.492;13.420;2023-07-31T13:00:39;6.43;;;1.95;;
81221;SDS011;70691;52.492;13.420;2023-07-31T13:03:05;3.35;;;1.48;;
81221;SDS011;70691;52.492;13.420;2023-07-31T13:05:34;4.47;;;1.90;;
81221;SDS011;70691;52.492;13.420;2023-07-31T13:08:00;4.93;;;1.52;;
81221;SDS011;70691;52.492;13.420;2023-07-31T13:10:26;5.78;;;2.33;;
81221;SDS011;70691;52.492;13.420;2023-07-31T13:12:53;5.80;;;1.70;;
81221;SDS011;70691;52.492;13.420;2023-07-31T13:15:19;3.17;;;1.52;;
81221;SDS011;70691;52.492;13.420;2023-07-31T13:17:45;5.68;;;1.63;;
81221;SDS011;70691;52.492;13.420;2023-07-31T13:20:11;4.63;;;1.67;;
81221;SDS011;70691;52.492;13.420;2023-07-31T13:22:37;7.07;;;2.00;;
81221;SDS011;70691;52.492;13.420;2023-07-31T13:25:03;4.95;;;2.05;;
81221;SDS011;70691;52.492;13.420;2023-07-31T13:27:32;4.43;;;1.92;;
81221;SDS011;70691;52.492;13.420;2023-07-31T13:29:57;5.32;;;2.45;;
81221;SDS011;70691;52.492;13.420;2023-07-31T13:32:23;8.20;;;2.22;;
81221;SDS011;70691;52.492;13.420;2023-07-31T13:34:49;4.03;;;2.33;;
81221;SDS011;70691;52.492;13.420;2023-07-31T13:37:15;5.60;;;2.33;;
81221;SDS011;70691;52.492;13.420;2023-07-31T13:39:41;7.00;;;2.50;;
81221;SDS011;70691;52.492;13.420;2023-07-31T13:42:07;6.03;;;2.08;;
81221;SDS011;70691;52.492;13.420;2023-07-31T13:44:40;6.93;;;2.38;;
81221;SDS011;70691;52.492;13.420;2023-07-31T13:47:07;4.53;;;1.92;;
81221;SDS011;70691;52.492;13.420;2023-07-31T13:49:34;13.23;;;2.50;;
81221;SDS011;70691;52.492;13.420;2023-07-31T13:52:01;7.50;;;2.15;;
81221;SDS011;70691;52.492;13.420;2023-07-31T13:54:27;7.57;;;2.47;;
81221;SDS011;70691;52.492;13.420;2023-07-31T13:56:53;3.80;;;1.92;;
81221;SDS011;70691;52.492;13.420;2023-07-31T13:59:19;3.60;;;2.25;;
81221;SDS011;70691;52.492;13.420;2023-07-31T14:01:45;7.65;;;2.92;;
81221;SDS011;70691;52.492;13.420;2023-07-31T14:04:11;8.77;;;2.75;;
81221;SDS011;70691;52.492;13.420;2023-07-31T14:06:37;6.43;;;2.92;;
81221;SDS011;70691;52.492;13.420;2023-07-31T14:09:03;6.43;;;2.88;;
81221;SDS011;70691;52.492;13.420;2023-07-31T14:11:30;6.97;;;2.95;;
81221;SDS011;70691;52.492;13.420;2023-07-31T14:13:56;7.95;;;2.65;;
81221;SDS011;70691;52.492;13.420;2023-07-31T14:16:22;4.80;;;3.05;;
81221;SDS011;70691;52.492;13.420;2023-07-31T14:18:48;6.95;;;3.00;;
81221;SDS011;70691;52.492;13.420;2023-07-31T14:21:14;7.78;;;2.67;;
81221;SDS011;70691;52.492;13.420;2023-07-31T14:23:40;5.72;;;2.80;;
81221;SDS011;70691;52.492;13.420;2023-07-31T14:26:06;6.25;;;3.08;;
81221;SDS011;70691;52.492;13.420;2023-07-31T14:28:32;7.13;;;2.55;;
81221;SDS011;70691;52.492;13.420;2023-07-31T14:30:57;7.63;;;3.42;;
81221;SDS011;70691;52.492;13.420;2023-07-31T14:33:23;6.40;;;2.45;;
81221;SDS011;70691;52.492;13.420;2023-07-31T14:35:49;7.22;;;3.97;;
81221;SDS011;70691;52.492;13.420;2023-07-31T14:38:15;7.55;;;2.20;;
81221;SDS011;70691;52.492;13.420;2023-07-31T14:40:41;5.82;;;3.03;;
81221;SDS011;70691;52.492;13.420;2023-07-31T14:43:07;11.13;;;2.88;;
81221;SDS011;70691;52.492;13.420;2023-07-31T14:45:32;4.50;;;2.22;;
81221;SDS011;70691;52.492;13.420;2023-07-31T14:47:58;5.07;;;2.28;;
81221;SDS011;70691;52.492;13.420;2023-07-31T14:50:24;4.70;;;2.20;;